Time;durP1;ratioP1;P1;durP2;ratioP2;P2;SDS_P1;SDS_P2;PMS_P1;PMS_P2;Temp;Humidity;BMP_temperature;BMP_pressure;BME280_temperature;BME280_humidity;BME280_pressure;Samples;Min_cycle;Max_cycle;Signal;HPM_P1;HPM_P2
2023/05/16 00:02:18;;;;;;;15.93;1.57;;;6.60;99.90;;;;;;5073772;28;20097;-74
2023/05/16 00:04:45;;;;;;;11.20;1.50;;;6.60;99.90;;;;;;5090585;28;20036;-74
2023/05/16 00:07:11;;;;;;;13.30;1.70;;;6.50;99.90;;;;;;5091787;28;20120;-74
2023/05/16 00:09:37;;;;;;;12.15;1.80;;;6.50;99.90;;;;;;5073334;28;20087;-73
2023/05/16 00:12:03;;;;;;;10.20;2.03;;;6.40;99.90;;;;;;5076858;28;20542;-73
2023/05/16 00:14:29;;;;;;;12.15;1.75;;;6.30;99.90;;;;;;5074392;28;20036;-73
2023/05/16 00:16:57;;;;;;;13.67;1.80;;;6.20;99.90;;;;;;5090667;28;20040;-73
2023/05/16 00:19:23;;;;;;;12.90;1.40;;;6.20;99.90;;;;;;5073270;28;20063;-73
2023/05/16 00:21:48;;;;;;;14.60;2.53;;;6.10;99.90;;;;;;5090386;28;20028;-73
2023/05/16 00:24:14;;;;;;;10.77;1.60;;;6.10;99.90;;;;;;5089967;28;20413;-73
2023/05/16 00:26:40;;;;;;;12.60;1.70;;;6.10;99.90;;;;;;5073893;28;20600;-73
2023/05/16 00:29:06;;;;;;;10.53;1.57;;;6.00;99.90;;;;;;5073014;28;20044;-73
2023/05/16 00:31:32;;;;;;;9.50;1.80;;;6.00;99.90;;;;;;5073488;28;20243;-73
2023/05/16 00:33:57;;;;;;;11.87;2.20;;;6.10;99.90;;;;;;5073448;28;20101;-73
2023/05/16 00:36:23;;;;;;;19.60;1.80;;;6.00;99.90;;;;;;5073877;28;20071;-73
2023/05/16 00:38:49;;;;;;;12.00;1.30;;;6.00;99.90;;;;;;5089699;28;20036;-74
2023/05/16 00:41:16;;;;;;;12.70;1.85;;;6.00;99.90;;;;;;5073542;28;20050;-74
2023/05/16 00:43:41;;;;;;;12.80;2.22;;;5.90;99.90;;;;;;5089842;28;20750;-74
2023/05/16 00:46:07;;;;;;;8.27;1.60;;;5.90;99.90;;;;;;5072453;28;20043;-74
2023/05/16 00:48:33;;;;;;;12.43;1.70;;;5.80;99.90;;;;;;5073320;28;20499;-74
2023/05/16 00:51:00;;;;;;;12.07;1.77;;;5.80;99.90;;;;;;5090534;28;20040;-74
2023/05/16 00:53:26;;;;;;;14.02;1.77;;;5.80;99.90;;;;;;5072675;28;20040;-74
2023/05/16 00:55:52;;;;;;;9.47;1.50;;;5.90;99.90;;;;;;5090172;28;20484;-74
2023/05/16 00:58:18;;;;;;;13.93;1.73;;;5.90;99.90;;;;;;5066567;28;20054;-74
2023/05/16 01:00:46;;;;;;;14.17;1.73;;;5.90;99.90;;;;;;5090544;28;20235;-74
2023/05/16 01:03:12;;;;;;;9.95;1.77;;;5.90;99.90;;;;;;5089508;28;20809;-74
2023/05/16 01:05:38;;;;;;;10.77;1.93;;;5.90;99.90;;;;;;5089640;28;20141;-74
2023/05/16 01:08:04;;;;;;;13.70;1.65;;;5.90;99.90;;;;;;5089542;28;20294;-73
2023/05/16 01:10:38;;;;;;;14.73;1.70;;;5.80;99.90;;;;;;5090325;28;20048;-73
2023/05/16 01:13:36;;;;;;;13.85;1.70;;;5.80;99.90;;;;;;5064871;28;20064;-73
2023/05/16 01:16:05;;;;;;;12.82;2.67;;;5.70;99.90;;;;;;5006083;28;20160;-73
2023/05/16 01:18:42;;;;;;;11.90;2.00;;;5.60;99.90;;;;;;5088574;28;20127;-73
2023/05/16 01:21:37;;;;;;;16.50;1.80;;;5.60;99.90;;;;;;5089567;28;20036;-73
2023/05/16 01:24:13;;;;;;;8.50;1.92;;;5.60;99.90;;;;;;5083114;28;20040;-73
2023/05/16 01:26:40;;;;;;;13.30;2.00;;;5.60;99.90;;;;;;5072836;28;20032;-73
2023/05/16 01:29:06;;;;;;;15.05;1.85;;;5.60;99.90;;;;;;5072223;28;20047;-73
2023/05/16 01:31:32;;;;;;;9.95;1.67;;;5.60;99.90;;;;;;5089107;28;20077;-73
2023/05/16 01:33:58;;;;;;;10.90;1.60;;;5.60;99.90;;;;;;5072306;28;20246;-73
2023/05/16 01:36:40;;;;;;;12.23;1.80;;;5.60;99.90;;;;;;5088348;28;20036;-73
2023/05/16 01:39:10;;;;;;;11.02;2.33;;;5.50;99.90;;;;;;5084537;28;20040;-73
2023/05/16 01:41:59;;;;;;;17.80;2.53;;;5.50;99.90;;;;;;5088912;28;20381;-73
2023/05/16 01:44:31;;;;;;;16.45;2.70;;;5.50;99.90;;;;;;5088312;28;20043;-73
2023/05/16 01:47:01;;;;;;;13.45;1.80;;;5.50;99.90;;;;;;5086826;28;20040;-73
2023/05/16 01:49:48;;;;;;;16.60;1.88;;;5.50;99.90;;;;;;5072595;28;20122;-73
2023/05/16 01:52:26;;;;;;;14.73;1.65;;;5.50;99.90;;;;;;5062323;28;20511;-73
2023/05/16 01:54:54;;;;;;;11.85;1.42;;;5.40;99.90;;;;;;5087451;28;20036;-73
2023/05/16 01:57:23;;;;;;;13.93;1.80;;;5.40;99.90;;;;;;5072248;28;20032;-73
2023/05/16 01:59:49;;;;;;;10.05;1.70;;;5.40;99.90;;;;;;5087600;28;20043;-73
2023/05/16 02:02:17;;;;;;;15.57;2.30;;;5.40;99.90;;;;;;5071934;28;20040;-73
2023/05/16 02:04:43;;;;;;;12.52;2.38;;;5.50;99.90;;;;;;5088928;28;20498;-73
2023/05/16 02:07:09;;;;;;;12.10;1.70;;;5.40;99.90;;;;;;5072091;28;20077;-73
2023/05/16 02:09:35;;;;;;;17.47;1.87;;;5.40;99.90;;;;;;5088744;28;20420;-73
2023/05/16 02:12:01;;;;;;;10.77;1.60;;;5.40;99.90;;;;;;5071446;28;20317;-73
2023/05/16 02:14:27;;;;;;;15.45;1.98;;;5.40;99.90;;;;;;5088872;28;20044;-73
2023/05/16 02:16:53;;;;;;;13.63;2.23;;;5.40;99.90;;;;;;5075340;28;20050;-73
2023/05/16 02:19:19;;;;;;;13.98;1.92;;;5.30;99.90;;;;;;5068980;28;20040;-73
2023/05/16 02:21:45;;;;;;;11.93;2.00;;;5.30;99.90;;;;;;5072245;28;20032;-73
2023/05/16 02:24:10;;;;;;;11.67;2.10;;;5.30;99.90;;;;;;5087994;28;20393;-73
2023/05/16 02:26:36;;;;;;;12.63;1.80;;;5.30;99.90;;;;;;5071724;28;20500;-73
2023/05/16 02:29:02;;;;;;;8.20;1.50;;;5.20;99.90;;;;;;5088132;28;20565;-73
2023/05/16 02:31:29;;;;;;;15.60;2.27;;;5.20;99.90;;;;;;5071591;28;20035;-73
2023/05/16 02:33:57;;;;;;;14.52;1.85;;;5.30;99.90;;;;;;5071101;28;20036;-73
2023/05/16 02:36:23;;;;;;;14.13;1.55;;;5.30;99.90;;;;;;5071755;28;20399;-73
2023/05/16 02:38:49;;;;;;;10.90;1.52;;;5.20;99.90;;;;;;5071282;28;20865;-73
2023/05/16 02:41:15;;;;;;;12.33;2.07;;;5.20;99.90;;;;;;5071423;28;20041;-73
2023/05/16 02:43:41;;;;;;;13.00;2.60;;;5.30;99.90;;;;;;5067747;28;20101;-73
2023/05/16 02:46:42;;;;;;;12.43;1.90;;;5.30;99.90;;;;;;5070617;28;20108;-73
2023/05/16 02:49:08;;;;;;;13.77;1.92;;;5.40;99.90;;;;;;4977853;28;20050;-73
2023/05/16 02:51:33;;;;;;;9.50;1.20;;;5.50;99.90;;;;;;5056164;28;20136;-73
2023/05/16 02:54:00;;;;;;;7.83;1.50;;;5.50;99.90;;;;;;5088309;28;20040;-73
2023/05/16 02:56:26;;;;;;;10.30;1.58;;;5.50;99.90;;;;;;5087951;28;20510;-73
2023/05/16 02:58:53;;;;;;;10.82;1.65;;;5.50;99.90;;;;;;5071227;28;20109;-73
2023/05/16 03:01:19;;;;;;;12.95;1.52;;;5.50;99.90;;;;;;5086765;28;20104;-73
2023/05/16 03:03:45;;;;;;;11.17;1.47;;;5.40;99.90;;;;;;5070096;28;20067;-73
2023/05/16 03:06:11;;;;;;;16.20;1.90;;;5.40;99.90;;;;;;5071055;28;20121;-73
2023/05/16 03:08:37;;;;;;;10.38;1.73;;;5.40;99.90;;;;;;5069705;28;20336;-73
2023/05/16 03:11:03;;;;;;;12.17;1.77;;;5.40;99.90;;;;;;5072362;28;20054;-73
2023/05/16 03:13:29;;;;;;;7.37;1.20;;;5.40;99.90;;;;;;5075028;28;20044;-73
2023/05/16 03:15:55;;;;;;;10.50;1.45;;;5.40;99.90;;;;;;5075365;28;20036;-73
2023/05/16 03:18:21;;;;;;;7.25;1.00;;;5.40;99.90;;;;;;5091999;28;20050;-73
2023/05/16 03:20:46;;;;;;;15.20;2.93;;;5.40;99.90;;;;;;5073470;28;20488;-73
2023/05/16 03:23:12;;;;;;;12.50;1.43;;;5.30;99.90;;;;;;5077155;28;20036;-73
2023/05/16 03:25:38;;;;;;;11.63;1.13;;;5.30;99.90;;;;;;5095193;28;20350;-73
2023/05/16 03:28:06;;;;;;;9.93;1.43;;;5.30;99.90;;;;;;5095536;28;20040;-73
2023/05/16 03:30:33;;;;;;;11.63;2.25;;;5.30;99.90;;;;;;5078243;28;20055;-73
2023/05/16 03:32:58;;;;;;;7.97;2.05;;;5.30;99.90;;;;;;5078299;28;20369;-73
2023/05/16 03:35:24;;;;;;;9.00;1.53;;;5.30;99.90;;;;;;5077844;28;20066;-73
2023/05/16 03:37:50;;;;;;;9.83;1.27;;;5.30;99.90;;;;;;5077582;28;20131;-73
2023/05/16 03:40:16;;;;;;;10.83;1.67;;;5.20;99.90;;;;;;5094417;28;20035;-73
2023/05/16 03:42:42;;;;;;;10.40;1.48;;;5.20;99.90;;;;;;5085958;28;20043;-73
2023/05/16 03:45:08;;;;;;;7.17;1.10;;;5.20;99.90;;;;;;5077945;28;20044;-73
2023/05/16 03:47:34;;;;;;;11.63;1.77;;;5.20;99.90;;;;;;5095423;28;20447;-73
2023/05/16 03:49:59;;;;;;;12.87;1.40;;;5.20;99.90;;;;;;5078485;28;20047;-73
2023/05/16 03:52:25;;;;;;;13.43;1.30;;;5.20;99.90;;;;;;5095244;28;20655;-73
2023/05/16 03:54:51;;;;;;;8.37;1.87;;;5.20;99.90;;;;;;5093235;28;20151;-73
2023/05/16 03:57:16;;;;;;;13.20;1.40;;;5.20;99.90;;;;;;5078062;28;20039;-73
2023/05/16 03:59:43;;;;;;;13.43;1.63;;;5.20;99.90;;;;;;5078274;28;20101;-73
2023/05/16 04:02:08;;;;;;;10.48;1.30;;;5.20;99.90;;;;;;5077789;28;20491;-73
2023/05/16 04:04:34;;;;;;;12.23;1.67;;;5.10;99.90;;;;;;5077859;28;20170;-73
2023/05/16 04:07:01;;;;;;;17.87;2.33;;;5.20;99.90;;;;;;5095254;28;20040;-73
2023/05/16 04:09:27;;;;;;;8.00;1.90;;;5.20;99.90;;;;;;5094209;28;20551;-73
2023/05/16 04:11:55;;;;;;;7.53;1.10;;;5.20;99.90;;;;;;5094675;28;20120;-73
2023/05/16 04:14:21;;;;;;;10.90;1.55;;;5.20;99.90;;;;;;5094673;28;20055;-73
2023/05/16 04:16:46;;;;;;;11.20;1.93;;;5.20;99.90;;;;;;5094508;28;20475;-73
2023/05/16 04:19:12;;;;;;;7.63;1.30;;;5.20;99.90;;;;;;5094055;28;20404;-73
2023/05/16 04:21:38;;;;;;;9.27;1.40;;;5.20;99.90;;;;;;5096309;28;20475;-73
2023/05/16 04:24:04;;;;;;;11.27;1.53;;;5.20;99.90;;;;;;5095347;28;20127;-73
2023/05/16 04:26:30;;;;;;;9.98;1.45;;;5.30;99.90;;;;;;5091719;28;20040;-73
2023/05/16 04:28:57;;;;;;;10.55;1.48;;;5.40;99.90;;;;;;5094480;28;20052;-73
2023/05/16 04:31:24;;;;;;;6.85;1.65;;;5.40;99.90;;;;;;5092020;28;20494;-73
2023/05/16 04:33:51;;;;;;;12.25;1.55;;;5.50;99.90;;;;;;5077398;28;20071;-73
2023/05/16 04:36:16;;;;;;;10.80;1.35;;;5.50;99.90;;;;;;5077696;28;20039;-73
2023/05/16 04:38:42;;;;;;;7.30;1.30;;;5.60;99.90;;;;;;5093990;28;20036;-73
2023/05/16 04:41:08;;;;;;;11.50;2.20;;;5.70;99.90;;;;;;5073432;28;20543;-73
2023/05/16 04:43:34;;;;;;;8.13;1.40;;;5.90;99.90;;;;;;5093594;28;20089;-73
2023/05/16 04:46:00;;;;;;;11.32;1.20;;;6.00;99.90;;;;;;5094803;28;20039;-73
2023/05/16 04:48:26;;;;;;;10.60;2.30;;;6.10;99.90;;;;;;5094047;28;20125;-73
2023/05/16 04:50:51;;;;;;;10.00;1.20;;;6.30;99.90;;;;;;5076956;28;20671;-73
2023/05/16 04:53:17;;;;;;;12.07;1.20;;;6.60;99.90;;;;;;5077184;28;20733;-73
2023/05/16 04:55:43;;;;;;;7.83;1.20;;;7.20;99.90;;;;;;5076181;28;20053;-73
2023/05/16 04:58:09;;;;;;;10.83;1.13;;;7.80;99.90;;;;;;5092303;28;20547;-73
2023/05/16 05:00:34;;;;;;;7.63;1.10;;;8.40;99.90;;;;;;5075300;28;20366;-74
2023/05/16 05:03:00;;;;;;;13.43;1.50;;;9.00;99.90;;;;;;5074273;28;20074;-74
2023/05/16 05:05:26;;;;;;;8.23;1.30;;;9.40;99.90;;;;;;5091629;28;20050;-74
2023/05/16 05:07:52;;;;;;;6.80;1.40;;;9.60;99.90;;;;;;5090823;28;20031;-74
2023/05/16 05:10:18;;;;;;;7.22;1.10;;;9.40;99.90;;;;;;5090231;28;20051;-74
2023/05/16 05:12:44;;;;;;;11.90;1.10;;;9.30;99.90;;;;;;5077260;28;20036;-74
2023/05/16 05:15:10;;;;;;;7.83;1.20;;;9.40;99.90;;;;;;5093587;28;20043;-74
2023/05/16 05:17:36;;;;;;;11.43;1.53;;;9.60;99.90;;;;;;5088269;28;20111;-74
2023/05/16 05:20:05;;;;;;;8.18;0.88;;;9.90;99.90;;;;;;5090995;28;20175;-74
2023/05/16 05:22:31;;;;;;;10.32;1.15;;;10.00;99.90;;;;;;5099502;28;20055;-74
2023/05/16 05:24:57;;;;;;;6.60;0.90;;;9.90;99.90;;;;;;5097555;28;20427;-74
2023/05/16 05:27:24;;;;;;;5.00;0.97;;;9.90;99.90;;;;;;5079253;28;20043;-74
2023/05/16 05:29:49;;;;;;;5.18;0.68;;;9.80;99.90;;;;;;5108253;28;20036;-74
2023/05/16 05:32:15;;;;;;;8.93;1.63;;;9.50;99.90;;;;;;5097926;28;20127;-74
2023/05/16 05:34:41;;;;;;;6.00;0.90;;;9.40;99.90;;;;;;5077740;28;20118;-74
2023/05/16 05:37:06;;;;;;;5.27;0.70;;;9.60;99.90;;;;;;5098696;28;20560;-74
2023/05/16 05:39:32;;;;;;;8.27;1.07;;;9.90;99.90;;;;;;5082721;28;20036;-74
2023/05/16 05:41:58;;;;;;;8.73;0.80;;;10.10;99.90;;;;;;5082304;28;20035;-74
2023/05/16 05:44:24;;;;;;;7.07;0.90;;;10.30;99.90;;;;;;5073341;28;20040;-74
2023/05/16 05:46:50;;;;;;;5.93;0.90;;;10.40;99.90;;;;;;5080807;28;20047;-74
2023/05/16 05:49:16;;;;;;;4.78;0.77;;;10.50;99.90;;;;;;5098171;28;20503;-74
2023/05/16 05:51:42;;;;;;;8.80;1.10;;;10.50;99.90;;;;;;5095749;28;20044;-74
2023/05/16 05:54:09;;;;;;;6.93;1.40;;;10.60;99.90;;;;;;5091989;28;20044;-74
2023/05/16 05:56:35;;;;;;;6.30;0.80;;;10.60;99.90;;;;;;5097503;28;20042;-74
2023/05/16 05:59:00;;;;;;;11.65;1.35;;;10.60;99.90;;;;;;5070751;28;20036;-74
2023/05/16 06:01:26;;;;;;;12.27;1.00;;;10.50;99.90;;;;;;5080285;28;20483;-74
2023/05/16 06:03:52;;;;;;;10.17;1.03;;;10.30;99.90;;;;;;5079145;28;20500;-74
2023/05/16 06:06:18;;;;;;;5.00;0.70;;;10.10;99.90;;;;;;5097154;28;20035;-74
2023/05/16 06:08:43;;;;;;;6.47;0.63;;;10.00;99.90;;;;;;5096605;28;20402;-74
2023/05/16 06:11:09;;;;;;;5.37;0.60;;;9.90;99.90;;;;;;5096098;28;20130;-74
2023/05/16 06:13:35;;;;;;;5.93;1.10;;;10.00;99.90;;;;;;5095346;28;20039;-74
2023/05/16 06:16:01;;;;;;;4.90;0.80;;;10.10;99.90;;;;;;5079492;28;20054;-74
2023/05/16 06:18:26;;;;;;;6.47;0.90;;;10.40;99.90;;;;;;5093291;28;20613;-74
2023/05/16 06:20:52;;;;;;;7.83;1.00;;;10.70;99.90;;;;;;5092182;28;20084;-74
2023/05/16 06:23:19;;;;;;;4.22;0.80;;;10.90;99.90;;;;;;5093545;28;20042;-74
2023/05/16 06:25:44;;;;;;;6.78;0.80;;;11.30;99.90;;;;;;5075987;28;20121;-74
2023/05/16 06:28:10;;;;;;;7.17;0.80;;;11.80;99.90;;;;;;5092411;28;20079;-74
2023/05/16 06:30:36;;;;;;;5.00;1.10;;;12.30;97.00;;;;;;5092654;28;20045;-74
2023/05/16 06:33:01;;;;;;;6.23;0.90;;;12.80;94.80;;;;;;5076200;28;20098;-74
2023/05/16 06:35:27;;;;;;;8.93;1.70;;;13.20;92.50;;;;;;5091729;28;20067;-74
2023/05/16 06:37:53;;;;;;;8.20;1.23;;;13.60;88.80;;;;;;5092330;28;20477;-74
2023/05/16 06:40:18;;;;;;;7.67;1.00;;;13.80;88.10;;;;;;5072738;28;20739;-74
2023/05/16 06:42:44;;;;;;;8.37;1.17;;;13.90;84.90;;;;;;5089676;28;20316;-74
2023/05/16 06:45:10;;;;;;;7.23;0.90;;;14.10;83.30;;;;;;5090413;28;20043;-74
2023/05/16 06:47:36;;;;;;;7.30;2.03;;;14.10;81.60;;;;;;5091606;28;20122;-74
2023/05/16 06:50:02;;;;;;;8.33;1.27;;;13.90;80.60;;;;;;5092315;28;20092;-74
2023/05/16 06:52:28;;;;;;;10.57;1.60;;;13.40;81.00;;;;;;5092881;28;20039;-74
2023/05/16 06:54:53;;;;;;;6.43;1.10;;;13.00;83.30;;;;;;5072795;28;20305;-75
2023/05/16 06:57:19;;;;;;;9.40;1.47;;;12.80;83.20;;;;;;5077699;28;20050;-74
2023/05/16 06:59:45;;;;;;;10.80;1.10;;;12.70;83.70;;;;;;5075712;28;20129;-74
2023/05/16 07:02:10;;;;;;;9.37;1.03;;;12.60;84.60;;;;;;5093137;28;20044;-75
2023/05/16 07:04:36;;;;;;;10.57;1.10;;;12.50;86.30;;;;;;5091165;28;20039;-75
2023/05/16 07:07:03;;;;;;;6.90;1.23;;;12.40;85.70;;;;;;5091604;28;20419;-75
2023/05/16 07:09:30;;;;;;;5.87;0.97;;;12.20;86.00;;;;;;5075138;28;20641;-75
2023/05/16 07:11:55;;;;;;;5.40;1.00;;;12.10;88.50;;;;;;5078759;28;20292;-75
2023/05/16 07:14:21;;;;;;;10.10;1.13;;;12.10;88.80;;;;;;5081374;28;20301;-75
2023/05/16 07:16:47;;;;;;;6.67;1.00;;;12.00;88.50;;;;;;5077916;28;20472;-74
2023/05/16 07:19:12;;;;;;;6.83;1.60;;;12.00;87.30;;;;;;5075768;28;20040;-75
2023/05/16 07:21:38;;;;;;;9.27;1.53;;;12.00;86.50;;;;;;5094003;28;20032;-74
2023/05/16 07:24:04;;;;;;;8.37;0.90;;;11.90;84.80;;;;;;5092537;28;20134;-74
2023/05/16 07:26:30;;;;;;;6.53;0.83;;;12.00;84.20;;;;;;5097997;28;20043;-74
2023/05/16 07:28:56;;;;;;;9.23;1.07;;;12.00;82.90;;;;;;5093935;28;20380;-74
2023/05/16 07:31:23;;;;;;;8.87;0.80;;;11.90;85.30;;;;;;5076310;28;20035;-74
2023/05/16 07:33:48;;;;;;;8.10;1.10;;;11.90;84.00;;;;;;5074707;28;20784;-74
2023/05/16 07:36:15;;;;;;;8.77;0.97;;;11.90;84.10;;;;;;5076672;28;20062;-74
2023/05/16 07:38:41;;;;;;;8.87;1.27;;;11.90;82.00;;;;;;5076814;28;20039;-74
2023/05/16 07:41:07;;;;;;;7.90;0.70;;;11.90;82.00;;;;;;5075563;28;20285;-75
2023/05/16 07:43:35;;;;;;;6.83;0.70;;;11.80;81.20;;;;;;5073679;28;20811;-75
2023/05/16 07:46:01;;;;;;;7.57;1.00;;;11.60;81.00;;;;;;5089537;28;20491;-75
2023/05/16 07:48:27;;;;;;;6.63;0.90;;;11.30;80.50;;;;;;5090756;28;20296;-74
2023/05/16 07:50:54;;;;;;;9.50;1.30;;;11.20;83.50;;;;;;5089773;28;20332;-74
2023/05/16 07:53:20;;;;;;;5.90;0.98;;;11.30;85.50;;;;;;5073959;28;20840;-74
2023/05/16 07:55:46;;;;;;;6.43;0.97;;;11.40;88.00;;;;;;5090730;28;20478;-74
2023/05/16 07:58:12;;;;;;;7.87;0.90;;;11.60;88.20;;;;;;5093996;28;20345;-74
2023/05/16 08:00:38;;;;;;;7.73;0.90;;;11.80;84.30;;;;;;5101004;27;20418;-75
2023/05/16 08:03:04;;;;;;;8.23;1.10;;;12.00;85.00;;;;;;5094875;28;20027;-74
2023/05/16 08:05:30;;;;;;;8.20;1.03;;;12.10;84.00;;;;;;5094706;28;20812;-73
2023/05/16 08:07:56;;;;;;;10.47;1.47;;;12.20;83.00;;;;;;5078573;28;20374;-74
2023/05/16 08:10:24;;;;;;;7.93;0.83;;;12.20;82.30;;;;;;5094484;28;20487;-74
2023/05/16 08:12:51;;;;;;;13.37;1.33;;;12.30;83.50;;;;;;5095050;28;20098;-74
2023/05/16 08:15:17;;;;;;;10.13;1.10;;;12.40;83.50;;;;;;5093601;28;20380;-75
2023/05/16 08:17:43;;;;;;;7.53;1.03;;;12.50;81.20;;;;;;5075662;28;20467;-75
2023/05/16 08:20:09;;;;;;;9.13;1.07;;;12.60;80.60;;;;;;5075420;28;20089;-74
2023/05/16 08:22:35;;;;;;;11.07;1.00;;;12.80;81.60;;;;;;5082720;28;20550;-74
2023/05/16 08:25:00;;;;;;;5.77;1.20;;;13.00;80.30;;;;;;5075750;28;20392;-74
2023/05/16 08:27:27;;;;;;;7.10;0.90;;;13.20;82.50;;;;;;5075269;28;20419;-74
2023/05/16 08:29:53;;;;;;;7.20;1.00;;;13.30;81.90;;;;;;5074913;28;20039;-74
2023/05/16 08:32:18;;;;;;;7.90;0.80;;;13.30;77.20;;;;;;5098928;27;20315;-74
2023/05/16 08:34:44;;;;;;;8.37;1.00;;;13.00;79.80;;;;;;5100534;27;20536;-74
2023/05/16 08:37:10;;;;;;;7.90;0.80;;;12.80;79.70;;;;;;5082904;27;20111;-74
2023/05/16 08:39:38;;;;;;;7.40;1.13;;;12.60;79.80;;;;;;5091926;27;20503;-73
2023/05/16 08:42:04;;;;;;;6.33;0.90;;;12.60;79.80;;;;;;5093240;27;20035;-75
2023/05/16 08:44:30;;;;;;;6.20;0.90;;;12.90;82.40;;;;;;5094846;28;20293;-74
2023/05/16 08:46:56;;;;;;;7.33;1.00;;;13.10;79.80;;;;;;5101860;27;20288;-74
2023/05/16 08:49:26;;;;;;;9.13;1.27;;;13.20;78.50;;;;;;5082395;28;20645;-73
2023/05/16 08:51:57;;;;;;;9.50;1.27;;;13.30;79.50;;;;;;5092298;28;20123;-73
2023/05/16 08:54:23;;;;;;;13.30;1.10;;;13.20;78.80;;;;;;5075130;28;20297;-73
2023/05/16 08:56:49;;;;;;;7.40;1.63;;;13.20;79.30;;;;;;5075590;28;20854;-73
2023/05/16 08:59:15;;;;;;;6.40;1.13;;;13.20;80.70;;;;;;5092424;28;20360;-73
2023/05/16 09:01:41;;;;;;;7.07;1.00;;;13.30;83.20;;;;;;5095272;27;20280;-73
2023/05/16 09:04:08;;;;;;;8.23;1.43;;;13.50;82.50;;;;;;5092556;28;20376;-73
2023/05/16 09:06:37;;;;;;;9.40;1.20;;;13.60;80.40;;;;;;5094211;28;20285;-73
2023/05/16 09:09:06;;;;;;;7.53;1.00;;;13.60;79.90;;;;;;5091337;28;20285;-73
2023/05/16 09:11:32;;;;;;;8.20;0.97;;;13.70;78.50;;;;;;5076235;28;20347;-73
2023/05/16 09:13:58;;;;;;;6.37;1.10;;;13.70;78.60;;;;;;5096625;28;20313;-73
2023/05/16 09:16:23;;;;;;;9.40;1.10;;;13.60;79.80;;;;;;5079038;28;20031;-73
2023/05/16 09:18:55;;;;;;;9.37;1.30;;;13.60;80.60;;;;;;5079617;28;20726;-73
2023/05/16 09:21:22;;;;;;;5.93;1.20;;;13.70;78.90;;;;;;5087392;28;20035;-73
2023/05/16 09:23:49;;;;;;;7.20;0.70;;;13.70;76.30;;;;;;5074404;28;20857;-73
2023/05/16 09:26:15;;;;;;;8.70;1.20;;;13.40;72.70;;;;;;5069966;28;20525;-73
2023/05/16 09:28:42;;;;;;;7.87;0.80;;;13.40;74.30;;;;;;5074742;28;20297;-73
2023/05/16 09:31:35;;;;;;;7.17;0.83;;;13.40;76.00;;;;;;5091276;28;20036;-73
2023/05/16 09:34:01;;;;;;;6.20;0.80;;;13.40;79.10;;;;;;5091945;28;20324;-73
2023/05/16 09:36:27;;;;;;;9.73;1.23;;;13.30;79.50;;;;;;5073843;28;20282;-73
2023/05/16 09:38:52;;;;;;;7.57;0.93;;;13.30;76.90;;;;;;5072890;28;20035;-73
2023/05/16 09:41:20;;;;;;;8.53;1.13;;;13.50;76.00;;;;;;5074690;28;20032;-73
2023/05/16 09:43:46;;;;;;;7.70;1.20;;;13.70;72.60;;;;;;5090964;28;20043;-73
2023/05/16 09:46:15;;;;;;;7.57;0.90;;;13.70;68.70;;;;;;5073665;28;20828;-73
2023/05/16 09:48:47;;;;;;;4.17;0.70;;;13.80;68.20;;;;;;5072377;28;20043;-73
2023/05/16 09:51:13;;;;;;;8.50;1.43;;;13.80;66.90;;;;;;5090836;28;20293;-73
2023/05/16 09:53:40;;;;;;;8.20;1.20;;;13.70;68.60;;;;;;5072590;28;20333;-73
2023/05/16 09:56:10;;;;;;;5.70;0.93;;;13.90;69.70;;;;;;5073247;28;20682;-73
2023/05/16 09:58:39;;;;;;;7.80;0.80;;;13.80;67.10;;;;;;5073887;28;20281;-74
2023/05/16 10:01:06;;;;;;;6.87;1.20;;;13.70;67.90;;;;;;5072199;28;20469;-73
2023/05/16 10:03:35;;;;;;;10.63;1.37;;;13.60;65.80;;;;;;5084655;28;20324;-73
2023/05/16 10:06:02;;;;;;;8.53;0.80;;;13.50;67.40;;;;;;5089341;28;20297;-73
2023/05/16 10:08:30;;;;;;;6.93;1.27;;;13.30;68.00;;;;;;5073624;28;20755;-73
2023/05/16 10:10:56;;;;;;;6.67;0.83;;;13.30;69.10;;;;;;5076641;27;20299;-73
2023/05/16 10:13:29;;;;;;;11.23;1.43;;;13.50;67.60;;;;;;5093708;28;20302;-73
2023/05/16 10:15:57;;;;;;;5.97;0.87;;;13.80;65.00;;;;;;5069945;28;20051;-74
2023/05/16 10:18:30;;;;;;;11.33;0.93;;;14.00;65.90;;;;;;5090850;28;20313;-73
2023/05/16 10:21:03;;;;;;;7.17;0.90;;;14.20;63.30;;;;;;5090074;28;20799;-73
2023/05/16 10:23:31;;;;;;;6.70;1.17;;;14.10;62.60;;;;;;5079287;28;20292;-73
2023/05/16 10:26:00;;;;;;;6.13;0.87;;;14.00;64.90;;;;;;5090776;28;20788;-73
2023/05/16 10:28:27;;;;;;;7.63;1.20;;;13.90;65.40;;;;;;5089667;28;20372;-73
2023/05/16 10:30:54;;;;;;;8.40;1.00;;;13.90;65.70;;;;;;5106354;28;20281;-73
2023/05/16 10:33:20;;;;;;;8.30;1.60;;;13.90;67.20;;;;;;5073001;28;20345;-73
2023/05/16 10:35:46;;;;;;;9.40;1.27;;;13.80;68.30;;;;;;5071921;28;20282;-73
2023/05/16 10:38:16;;;;;;;7.57;0.90;;;13.70;66.10;;;;;;5092304;28;20305;-73
2023/05/16 10:40:42;;;;;;;7.13;0.97;;;13.60;67.70;;;;;;5076129;28;20853;-74
2023/05/16 10:43:08;;;;;;;10.83;1.50;;;13.50;68.80;;;;;;5076467;28;20300;-74
2023/05/16 10:45:43;;;;;;;6.13;0.80;;;13.50;68.40;;;;;;5094139;28;20282;-74
2023/05/16 10:48:11;;;;;;;9.65;1.20;;;13.60;69.50;;;;;;5092417;28;20380;-74
2023/05/16 10:50:37;;;;;;;9.80;1.20;;;13.70;69.30;;;;;;5076376;28;20444;-74
2023/05/16 10:53:27;;;;;;;7.20;0.97;;;13.60;69.60;;;;;;5092943;28;20298;-74
2023/05/16 10:56:00;;;;;;;8.07;1.10;;;13.50;70.60;;;;;;5077922;28;20294;-73
2023/05/16 10:58:37;;;;;;;5.20;0.90;;;13.40;69.90;;;;;;5077748;28;20370;-73
2023/05/16 11:01:32;;;;;;;6.07;0.97;;;13.50;68.60;;;;;;5091277;28;20701;-72
2023/05/16 11:03:58;;;;;;;6.37;1.00;;;13.50;66.10;;;;;;5090143;28;20713;-74
2023/05/16 11:06:39;;;;;;;6.30;0.93;;;13.60;66.80;;;;;;5092780;28;20376;-73
2023/05/16 11:09:12;;;;;;;4.83;1.33;;;13.70;66.40;;;;;;5075888;28;20303;-73
2023/05/16 11:11:45;;;;;;;9.83;1.20;;;13.80;68.40;;;;;;5076076;28;20384;-74
2023/05/16 11:14:26;;;;;;;7.03;1.00;;;13.80;68.80;;;;;;5091681;28;20421;-75
2023/05/16 11:17:00;;;;;;;8.60;0.90;;;13.40;72.10;;;;;;5075661;28;20289;-76
2023/05/16 11:19:59;;;;;;;7.30;1.33;;;13.20;74.70;;;;;;5077303;28;20281;-74
2023/05/16 11:22:29;;;;;;;5.17;1.10;;;13.10;73.80;;;;;;5072232;28;20027;-73
2023/05/16 11:25:05;;;;;;;4.30;0.80;;;13.20;71.10;;;;;;5092787;28;20290;-73
2023/05/16 11:27:45;;;;;;;2.57;0.63;;;13.30;68.50;;;;;;5092135;28;21550;-74
2023/05/16 11:30:19;;;;;;;3.77;0.90;;;13.60;69.60;;;;;;5092651;28;20735;-74
2023/05/16 11:32:47;;;;;;;7.50;1.30;;;14.00;67.40;;;;;;5076641;28;20346;-74
2023/05/16 11:35:17;;;;;;;5.07;1.40;;;14.30;66.50;;;;;;5079039;28;20122;-74
2023/05/16 11:37:44;;;;;;;6.27;1.30;;;14.40;63.90;;;;;;5079374;28;20277;-73
2023/05/16 11:40:12;;;;;;;8.70;1.30;;;14.30;64.10;;;;;;5098385;28;20300;-73
2023/05/16 11:42:39;;;;;;;5.10;1.00;;;14.20;64.70;;;;;;5095918;28;20657;-73
2023/05/16 11:45:11;;;;;;;4.60;1.07;;;14.10;64.60;;;;;;5078776;28;20273;-74
2023/05/16 11:47:41;;;;;;;5.07;1.20;;;14.00;64.50;;;;;;5079555;28;20293;-74
2023/05/16 11:50:11;;;;;;;5.93;1.17;;;13.90;64.90;;;;;;5081057;28;20313;-74
2023/05/16 11:52:37;;;;;;;3.63;1.00;;;14.00;65.30;;;;;;5078716;28;20277;-73
2023/05/16 11:55:05;;;;;;;7.63;1.20;;;14.30;63.60;;;;;;5078878;28;20282;-73
2023/05/16 11:57:32;;;;;;;5.67;1.27;;;14.60;63.40;;;;;;5100403;28;20670;-74
2023/05/16 12:00:18;;;;;;;6.63;1.47;;;14.60;61.60;;;;;;5095008;28;20780;-74
2023/05/16 12:02:46;;;;;;;4.63;1.40;;;14.80;60.50;;;;;;5095348;28;20277;-73
2023/05/16 12:05:13;;;;;;;7.17;1.30;;;14.80;60.50;;;;;;5078401;28;20587;-73
2023/05/16 12:07:39;;;;;;;7.17;1.40;;;14.70;58.60;;;;;;5078558;28;20285;-73
2023/05/16 12:10:10;;;;;;;5.07;1.80;;;14.50;58.70;;;;;;5078145;28;20281;-73
2023/05/16 12:12:39;;;;;;;5.30;1.57;;;14.50;58.40;;;;;;5095498;28;20289;-73
2023/05/16 12:15:06;;;;;;;5.63;2.00;;;14.50;58.00;;;;;;5095332;28;20285;-73
2023/05/16 12:17:36;;;;;;;4.57;1.80;;;14.60;57.60;;;;;;5094478;28;20281;-74
2023/05/16 12:20:10;;;;;;;6.43;2.00;;;14.70;56.70;;;;;;5095276;28;20869;-73
2023/05/16 12:22:42;;;;;;;5.93;2.20;;;14.90;55.50;;;;;;5095165;28;20262;-74
2023/05/16 12:25:28;;;;;;;7.63;2.00;;;14.80;54.50;;;;;;5073662;28;20646;-74
2023/05/16 12:27:56;;;;;;;6.10;1.63;;;14.80;55.40;;;;;;5068725;28;20293;-73
2023/05/16 12:30:23;;;;;;;5.40;1.70;;;14.80;53.90;;;;;;5074856;28;20278;-73
2023/05/16 12:32:57;;;;;;;7.30;1.73;;;14.80;53.00;;;;;;5091778;28;20304;-74
2023/05/16 12:35:24;;;;;;;5.47;1.90;;;14.90;54.40;;;;;;5091150;28;20305;-73
2023/05/16 12:37:50;;;;;;;5.20;1.40;;;15.00;54.80;;;;;;5089276;28;20344;-74
2023/05/16 12:40:16;;;;;;;6.93;1.23;;;15.10;55.00;;;;;;5072070;28;20278;-73
2023/05/16 12:42:58;;;;;;;7.10;1.27;;;15.00;56.00;;;;;;5089339;28;20282;-73
2023/05/16 12:45:26;;;;;;;6.40;1.40;;;15.00;55.90;;;;;;5089489;28;20778;-73
2023/05/16 12:47:52;;;;;;;4.43;1.00;;;15.00;57.20;;;;;;5073575;28;20325;-73
2023/05/16 12:50:18;;;;;;;7.80;1.10;;;15.20;57.10;;;;;;5073593;28;20314;-73
2023/05/16 12:52:48;;;;;;;6.07;1.60;;;15.20;57.90;;;;;;5091131;28;20051;-74